sensor_id;sensor_type;location;lat;lon;timestamp;pressure;altitude;pressure_sealevel;temperature;humidity
61908;BME280;47864;52.526;19.672;2023-03-21T00:00:04;100780.69;;;8.25;100.00
61908;BME280;47864;52.526;19.672;2023-03-21T00:02:05;100758.53;;;8.16;100.00
61908;BME280;47864;52.526;19.672;2023-03-21T00:04:07;100777.09;;;8.26;100.00
61908;BME280;47864;52.526;19.672;2023-03-21T00:06:11;100768.78;;;8.30;100.00
61908;BME280;47864;52.526;19.672;2023-03-21T00:08:12;100778.91;;;8.25;100.00
61908;BME280;47864;52.526;19.672;2023-03-21T00:10:14;100762.31;;;8.14;100.00
61908;BME280;47864;52.526;19.672;2023-03-21T00:12:30;100777.94;;;8.26;100.00
61908;BME280;47864;52.526;19.672;2023-03-21T00:14:31;100773.84;;;8.13;100.00
61908;BME280;47864;52.526;19.672;2023-03-21T00:16:33;100775.44;;;8.04;100.00
61908;BME280;47864;52.526;19.672;2023-03-21T00:18:36;100776.25;;;8.25;100.00
61908;BME280;47864;52.526;19.672;2023-03-21T00:20:38;100763.13;;;8.14;100.00
61908;BME280;47864;52.526;19.672;2023-03-21T00:22:40;100769.38;;;8.13;100.00
61908;BME280;47864;52.526;19.672;2023-03-21T00:24:42;100775.22;;;8.17;100.00
61908;BME280;47864;52.526;19.672;2023-03-21T00:26:44;100764.66;;;8.17;100.00
61908;BME280;47864;52.526;19.672;2023-03-21T00:28:45;100766.16;;;8.10;100.00
61908;BME280;47864;52.526;19.672;2023-03-21T00:30:46;100751.94;;;8.01;100.00
61908;BME280;47864;52.526;19.672;2023-03-21T00:32:48;100751.28;;;8.09;100.00
61908;BME280;47864;52.526;19.672;2023-03-21T00:34:57;100759.56;;;8.25;100.00
61908;BME280;47864;52.526;19.672;2023-03-21T00:37:19;100765.38;;;8.19;100.00
61908;BME280;47864;52.526;19.672;2023-03-21T00:39:20;100743.94;;;8.12;100.00
61908;BME280;47864;52.526;19.672;2023-03-21T00:41:21;100756.44;;;8.31;100.00
61908;BME280;47864;52.526;19.672;2023-03-21T00:43:42;100755.56;;;8.30;100.00
61908;BME280;47864;52.526;19.672;2023-03-21T00:45:44;100752.59;;;8.24;100.00
61908;BME280;47864;52.526;19.672;2023-03-21T00:47:45;100752.00;;;8.31;100.00
61908;BME280;47864;52.526;19.672;2023-03-21T00:49:47;100745.38;;;8.26;100.00
61908;BME280;47864;52.526;19.672;2023-03-21T00:51:48;100742.28;;;8.42;100.00
61908;BME280;47864;52.526;19.672;2023-03-21T00:53:55;100748.97;;;8.46;100.00
61908;BME280;47864;52.526;19.672;2023-03-21T00:55:57;100748.88;;;8.57;100.00
61908;BME280;47864;52.526;19.672;2023-03-21T00:57:58;100749.28;;;8.52;100.00
61908;BME280;47864;52.526;19.672;2023-03-21T01:00:03;100743.56;;;8.57;100.00
61908;BME280;47864;52.526;19.672;2023-03-21T01:02:04;100744.97;;;8.51;100.00
61908;BME280;47864;52.526;19.672;2023-03-21T01:04:06;100727.00;;;8.45;100.00
61908;BME280;47864;52.526;19.672;2023-03-21T01:06:09;100749.69;;;8.48;100.00
61908;BME280;47864;52.526;19.672;2023-03-21T01:08:13;100747.00;;;8.38;100.00
61908;BME280;47864;52.526;19.672;2023-03-21T01:10:29;100746.75;;;8.51;100.00
61908;BME280;47864;52.526;19.672;2023-03-21T01:12:31;100749.91;;;8.35;100.00
61908;BME280;47864;52.526;19.672;2023-03-21T01:14:32;100755.63;;;8.40;100.00
61908;BME280;47864;52.526;19.672;2023-03-21T01:16:34;100756.03;;;8.35;100.00
61908;BME280;47864;52.526;19.672;2023-03-21T01:18:37;100711.75;;;7.97;100.00
61908;BME280;47864;52.526;19.672;2023-03-21T01:20:41;100747.38;;;8.33;100.00
61908;BME280;47864;52.526;19.672;2023-03-21T01:22:42;100734.69;;;8.27;100.00
61908;BME280;47864;52.526;19.672;2023-03-21T01:24:44;100745.22;;;8.38;100.00
61908;BME280;47864;52.526;19.672;2023-03-21T01:27:03;100742.75;;;8.26;100.00
61908;BME280;47864;52.526;19.672;2023-03-21T01:29:04;100748.72;;;8.28;100.00
61908;BME280;47864;52.526;19.672;2023-03-21T01:31:06;100725.03;;;8.17;100.00
61908;BME280;47864;52.526;19.672;2023-03-21T01:33:08;100752.59;;;8.45;100.00
61908;BME280;47864;52.526;19.672;2023-03-21T01:35:09;100739.34;;;8.35;100.00
61908;BME280;47864;52.526;19.672;2023-03-21T01:37:10;100749.38;;;8.41;100.00
61908;BME280;47864;52.526;19.672;2023-03-21T01:39:12;100752.63;;;8.54;100.00
61908;BME280;47864;52.526;19.672;2023-03-21T01:41:23;100746.81;;;8.60;100.00
61908;BME280;47864;52.526;19.672;2023-03-21T01:43:37;100756.41;;;8.61;100.00
61908;BME280;47864;52.526;19.672;2023-03-21T01:48:22;100752.41;;;8.36;100.00
61908;BME280;47864;52.526;19.672;2023-03-21T01:50:25;100755.38;;;8.43;100.00
61908;BME280;47864;52.526;19.672;2023-03-21T01:52:33;100749.81;;;8.46;100.00
61908;BME280;47864;52.526;19.672;2023-03-21T01:54:40;100745.59;;;8.34;100.00
61908;BME280;47864;52.526;19.672;2023-03-21T01:56:43;100751.03;;;8.42;100.00
61908;BME280;47864;52.526;19.672;2023-03-21T01:58:46;100752.16;;;8.39;100.00
61908;BME280;47864;52.526;19.672;2023-03-21T02:00:49;100732.28;;;8.15;100.00
61908;BME280;47864;52.526;19.672;2023-03-21T02:02:52;100755.19;;;8.35;100.00
61908;BME280;47864;52.526;19.672;2023-03-21T02:04:57;100754.41;;;8.44;100.00
61908;BME280;47864;52.526;19.672;2023-03-21T02:07:08;100740.09;;;8.26;100.00
61908;BME280;47864;52.526;19.672;2023-03-21T02:09:15;100745.97;;;8.29;100.00
61908;BME280;47864;52.526;19.672;2023-03-21T02:11:20;100740.38;;;8.23;100.00
61908;BME280;47864;52.526;19.672;2023-03-21T02:13:21;100749.34;;;8.31;100.00
61908;BME280;47864;52.526;19.672;2023-03-21T02:15:23;100745.25;;;8.27;100.00
61908;BME280;47864;52.526;19.672;2023-03-21T02:27:27;100751.31;;;8.18;100.00
61908;BME280;47864;52.526;19.672;2023-03-21T02:37:23;100758.84;;;8.44;100.00
61908;BME280;47864;52.526;19.672;2023-03-21T02:39:55;100751.38;;;8.28;100.00
61908;BME280;47864;52.526;19.672;2023-03-21T02:46:11;100747.91;;;8.27;100.00
61908;BME280;47864;52.526;19.672;2023-03-21T02:48:20;100750.94;;;8.23;100.00
61908;BME280;47864;52.526;19.672;2023-03-21T02:50:41;100729.53;;;7.95;100.00
61908;BME280;47864;52.526;19.672;2023-03-21T02:52:44;100748.13;;;8.15;100.00
61908;BME280;47864;52.526;19.672;2023-03-21T02:54:48;100756.50;;;7.99;100.00
61908;BME280;47864;52.526;19.672;2023-03-21T02:56:51;100758.06;;;8.01;100.00
61908;BME280;47864;52.526;19.672;2023-03-21T02:58:53;100755.06;;;8.16;100.00
61908;BME280;47864;52.526;19.672;2023-03-21T03:00:55;100754.81;;;8.19;100.00
61908;BME280;47864;52.526;19.672;2023-03-21T03:02:57;100752.59;;;8.24;100.00
61908;BME280;47864;52.526;19.672;2023-03-21T03:05:19;100750.25;;;8.21;100.00
61908;BME280;47864;52.526;19.672;2023-03-21T03:07:39;100748.03;;;8.26;100.00
61908;BME280;47864;52.526;19.672;2023-03-21T03:09:52;100756.44;;;8.31;100.00
61908;BME280;47864;52.526;19.672;2023-03-21T03:12:20;100757.28;;;8.41;100.00
61908;BME280;47864;52.526;19.672;2023-03-21T03:14:49;100755.78;;;8.38;100.00
61908;BME280;47864;52.526;19.672;2023-03-21T03:17:31;100735.78;;;8.25;100.00
61908;BME280;47864;52.526;19.672;2023-03-21T03:19:47;100742.97;;;8.44;100.00
61908;BME280;47864;52.526;19.672;2023-03-21T03:22:14;100754.28;;;8.46;100.00
61908;BME280;47864;52.526;19.672;2023-03-21T03:24:25;100732.91;;;8.07;100.00
61908;BME280;47864;52.526;19.672;2023-03-21T03:26:40;100722.34;;;8.07;100.00
61908;BME280;47864;52.526;19.672;2023-03-21T03:28:48;100745.97;;;8.29;100.00
61908;BME280;47864;52.526;19.672;2023-03-21T03:30:53;100747.06;;;8.27;100.00
61908;BME280;47864;52.526;19.672;2023-03-21T03:33:10;100744.66;;;8.14;100.00
61908;BME280;47864;52.526;19.672;2023-03-21T03:35:14;100750.50;;;8.18;100.00
61908;BME280;47864;52.526;19.672;2023-03-21T03:37:20;100755.81;;;8.27;100.00
61908;BME280;47864;52.526;19.672;2023-03-21T03:39:28;100732.53;;;8.12;100.00
61908;BME280;47864;52.526;19.672;2023-03-21T03:41:39;100752.75;;;8.22;100.00
61908;BME280;47864;52.526;19.672;2023-03-21T03:44:02;100756.66;;;8.28;100.00
61908;BME280;47864;52.526;19.672;2023-03-21T03:46:09;100757.69;;;8.16;100.00
61908;BME280;47864;52.526;19.672;2023-03-21T03:48:23;100758.41;;;8.18;100.00
61908;BME280;47864;52.526;19.672;2023-03-21T03:50:53;100740.88;;;8.17;100.00
61908;BME280;47864;52.526;19.672;2023-03-21T03:53:01;100761.78;;;8.20;100.00
61908;BME280;47864;52.526;19.672;2023-03-21T03:55:17;100735.88;;;8.14;100.00
61908;BME280;47864;52.526;19.672;2023-03-21T03:57:21;100751.16;;;8.31;100.00
61908;BME280;47864;52.526;19.672;2023-03-21T03:59:25;100742.31;;;8.21;100.00
61908;BME280;47864;52.526;19.672;2023-03-21T04:01:27;100758.13;;;8.42;100.00
61908;BME280;47864;52.526;19.672;2023-03-21T04:03:28;100757.03;;;8.44;100.00
61908;BME280;47864;52.526;19.672;2023-03-21T04:05:46;100748.50;;;8.31;100.00
61908;BME280;47864;52.526;19.672;2023-03-21T04:07:47;100752.75;;;8.53;100.00
61908;BME280;47864;52.526;19.672;2023-03-21T04:09:49;100755.69;;;8.59;100.00
61908;BME280;47864;52.526;19.672;2023-03-21T04:11:50;100746.50;;;8.54;100.00
61908;BME280;47864;52.526;19.672;2023-03-21T04:13:52;100749.44;;;8.60;100.00
61908;BME280;47864;52.526;19.672;2023-03-21T04:15:53;100755.03;;;8.67;100.00
61908;BME280;47864;52.526;19.672;2023-03-21T04:17:55;100753.50;;;8.74;100.00
61908;BME280;47864;52.526;19.672;2023-03-21T04:19:56;100751.88;;;8.83;100.00
61908;BME280;47864;52.526;19.672;2023-03-21T04:22:13;100757.44;;;8.80;100.00
61908;BME280;47864;52.526;19.672;2023-03-21T04:24:15;100753.84;;;8.81;100.00
61908;BME280;47864;52.526;19.672;2023-03-21T04:26:16;100758.25;;;8.70;100.00
61908;BME280;47864;52.526;19.672;2023-03-21T04:28:18;100758.09;;;8.62;100.00
61908;BME280;47864;52.526;19.672;2023-03-21T04:30:20;100764.13;;;8.84;100.00
61908;BME280;47864;52.526;19.672;2023-03-21T04:32:22;100758.25;;;8.70;100.00
61908;BME280;47864;52.526;19.672;2023-03-21T04:34:24;100758.66;;;8.75;100.00
61908;BME280;47864;52.526;19.672;2023-03-21T04:36:27;100749.34;;;8.71;100.00
61908;BME280;47864;52.526;19.672;2023-03-21T04:38:28;100759.13;;;8.81;100.00
61908;BME280;47864;52.526;19.672;2023-03-21T04:40:30;100765.09;;;8.83;100.00
61908;BME280;47864;52.526;19.672;2023-03-21T04:42:33;100758.13;;;8.82;100.00
61908;BME280;47864;52.526;19.672;2023-03-21T04:44:35;100766.50;;;8.87;100.00
61908;BME280;47864;52.526;19.672;2023-03-21T04:46:37;100755.59;;;8.70;100.00
61908;BME280;47864;52.526;19.672;2023-03-21T04:48:39;100758.50;;;8.67;100.00
61908;BME280;47864;52.526;19.672;2023-03-21T04:50:40;100749.44;;;8.60;100.00
61908;BME280;47864;52.526;19.672;2023-03-21T04:52:42;100754.31;;;8.55;100.00
61908;BME280;47864;52.526;19.672;2023-03-21T04:54:43;100768.53;;;8.64;100.00
61908;BME280;47864;52.526;19.672;2023-03-21T04:56:45;100772.28;;;8.61;100.00
61908;BME280;47864;52.526;19.672;2023-03-21T04:58:46;100763.34;;;8.53;100.00
61908;BME280;47864;52.526;19.672;2023-03-21T05:00:48;100757.84;;;8.35;100.00
61908;BME280;47864;52.526;19.672;2023-03-21T05:02:49;100773.31;;;8.49;100.00
61908;BME280;47864;52.526;19.672;2023-03-21T05:04:51;100769.53;;;8.42;100.00
61908;BME280;47864;52.526;19.672;2023-03-21T05:06:53;100774.16;;;8.50;100.00
61908;BME280;47864;52.526;19.672;2023-03-21T05:08:56;100780.75;;;8.55;100.00
61908;BME280;47864;52.526;19.672;2023-03-21T05:10:57;100754.47;;;8.33;100.00
61908;BME280;47864;52.526;19.672;2023-03-21T05:12:59;100772.47;;;8.39;100.00
61908;BME280;47864;52.526;19.672;2023-03-21T05:15:01;100768.06;;;8.28;100.00
61908;BME280;47864;52.526;19.672;2023-03-21T05:17:03;100766.06;;;8.42;100.00
61908;BME280;47864;52.526;19.672;2023-03-21T05:19:04;100781.25;;;8.49;100.00
61908;BME280;47864;52.526;19.672;2023-03-21T05:21:06;100773.16;;;8.41;100.00
61908;BME280;47864;52.526;19.672;2023-03-21T05:23:09;100771.19;;;8.33;100.00
61908;BME280;47864;52.526;19.672;2023-03-21T05:25:11;100771.06;;;8.35;100.00
61908;BME280;47864;52.526;19.672;2023-03-21T05:27:13;100774.84;;;8.42;100.00
61908;BME280;47864;52.526;19.672;2023-03-21T05:29:16;100771.53;;;8.50;100.00
61908;BME280;47864;52.526;19.672;2023-03-21T05:31:18;100770.69;;;8.49;100.00
61908;BME280;47864;52.526;19.672;2023-03-21T05:33:19;100781.88;;;8.62;100.00
61908;BME280;47864;52.526;19.672;2023-03-21T05:35:21;100779.91;;;8.55;100.00
61908;BME280;47864;52.526;19.672;2023-03-21T05:37:23;100772.59;;;8.37;100.00
61908;BME280;47864;52.526;19.672;2023-03-21T05:39:24;100766.72;;;8.34;100.00
61908;BME280;47864;52.526;19.672;2023-03-21T05:41:26;100770.97;;;8.25;100.00
61908;BME280;47864;52.526;19.672;2023-03-21T05:43:27;100774.78;;;8.32;100.00
61908;BME280;47864;52.526;19.672;2023-03-21T05:45:29;100787.41;;;8.29;100.00
61908;BME280;47864;52.526;19.672;2023-03-21T05:47:30;100782.84;;;8.10;100.00
61908;BME280;47864;52.526;19.672;2023-03-21T05:49:32;100777.38;;;8.23;100.00
61908;BME280;47864;52.526;19.672;2023-03-21T05:51:33;100788.88;;;8.43;100.00
61908;BME280;47864;52.526;19.672;2023-03-21T05:53:35;100787.25;;;8.51;100.00
61908;BME280;47864;52.526;19.672;2023-03-21T05:55:38;100784.50;;;8.32;100.00
61908;BME280;47864;52.526;19.672;2023-03-21T05:57:40;100778.97;;;8.35;100.00
61908;BME280;47864;52.526;19.672;2023-03-21T05:59:41;100792.44;;;8.32;100.00
61908;BME280;47864;52.526;19.672;2023-03-21T06:01:43;100795.81;;;8.34;100.00
61908;BME280;47864;52.526;19.672;2023-03-21T06:03:44;100804.22;;;8.49;100.00
61908;BME280;47864;52.526;19.672;2023-03-21T06:05:46;100783.19;;;8.37;100.00
61908;BME280;47864;52.526;19.672;2023-03-21T06:07:47;100799.59;;;8.41;100.00
61908;BME280;47864;52.526;19.672;2023-03-21T06:09:49;100806.69;;;8.40;100.00
61908;BME280;47864;52.526;19.672;2023-03-21T06:11:52;100809.19;;;8.42;100.00
61908;BME280;47864;52.526;19.672;2023-03-21T06:13:55;100810.09;;;8.52;100.00
61908;BME280;47864;52.526;19.672;2023-03-21T06:15:56;100804.03;;;8.40;100.00
61908;BME280;47864;52.526;19.672;2023-03-21T06:17:58;100814.41;;;8.53;100.00
61908;BME280;47864;52.526;19.672;2023-03-21T06:20:00;100808.03;;;8.56;100.00
61908;BME280;47864;52.526;19.672;2023-03-21T06:22:01;100807.44;;;8.52;100.00
61908;BME280;47864;52.526;19.672;2023-03-21T06:24:03;100826.59;;;8.45;100.00
61908;BME280;47864;52.526;19.672;2023-03-21T06:26:05;100818.28;;;8.49;100.00
61908;BME280;47864;52.526;19.672;2023-03-21T06:28:06;100823.13;;;8.44;100.00
61908;BME280;47864;52.526;19.672;2023-03-21T06:30:08;100813.53;;;8.43;100.00
61908;BME280;47864;52.526;19.672;2023-03-21T06:32:11;100818.50;;;8.36;100.00
61908;BME280;47864;52.526;19.672;2023-03-21T06:34:12;100825.53;;;8.47;100.00
61908;BME280;47864;52.526;19.672;2023-03-21T06:36:14;100828.09;;;8.37;100.00
61908;BME280;47864;52.526;19.672;2023-03-21T06:38:15;100823.44;;;8.30;100.00
61908;BME280;47864;52.526;19.672;2023-03-21T06:40:17;100805.78;;;8.10;100.00
61908;BME280;47864;52.526;19.672;2023-03-21T06:42:18;100841.03;;;8.40;100.00
61908;BME280;47864;52.526;19.672;2023-03-21T06:44:20;100837.38;;;8.32;100.00
61908;BME280;47864;52.526;19.672;2023-03-21T06:46:22;100839.81;;;8.24;100.00
61908;BME280;47864;52.526;19.672;2023-03-21T06:48:23;100812.75;;;8.11;100.00
61908;BME280;47864;52.526;19.672;2023-03-21T06:50:25;100829.56;;;8.30;100.00
61908;BME280;47864;52.526;19.672;2023-03-21T06:52:27;100837.13;;;8.56;100.00
61908;BME280;47864;52.526;19.672;2023-03-21T06:54:28;100834.09;;;8.70;100.00
61908;BME280;47864;52.526;19.672;2023-03-21T06:56:30;100828.06;;;8.58;100.00
61908;BME280;47864;52.526;19.672;2023-03-21T06:58:31;100842.13;;;8.59;100.00
61908;BME280;47864;52.526;19.672;2023-03-21T07:00:33;100846.91;;;8.74;100.00
61908;BME280;47864;52.526;19.672;2023-03-21T07:02:35;100849.56;;;8.74;100.00
61908;BME280;47864;52.526;19.672;2023-03-21T07:04:36;100847.41;;;8.99;100.00
61908;BME280;47864;52.526;19.672;2023-03-21T07:06:38;100843.59;;;8.82;100.00
61908;BME280;47864;52.526;19.672;2023-03-21T07:08:40;100835.66;;;8.82;100.00
61908;BME280;47864;52.526;19.672;2023-03-21T07:10:42;100846.06;;;8.74;100.00
61908;BME280;47864;52.526;19.672;2023-03-21T07:12:45;100852.34;;;8.73;100.00
61908;BME280;47864;52.526;19.672;2023-03-21T07:14:47;100848.94;;;8.92;100.00
61908;BME280;47864;52.526;19.672;2023-03-21T07:16:48;100833.66;;;8.95;100.00
61908;BME280;47864;52.526;19.672;2023-03-21T07:18:50;100844.94;;;9.07;100.00
61908;BME280;47864;52.526;19.672;2023-03-21T07:20:52;100839.44;;;8.80;100.00
61908;BME280;47864;52.526;19.672;2023-03-21T07:22:53;100843.91;;;8.58;100.00
61908;BME280;47864;52.526;19.672;2023-03-21T07:24:55;100852.84;;;8.88;100.00
61908;BME280;47864;52.526;19.672;2023-03-21T07:27:05;100853.44;;;9.01;100.00
61908;BME280;47864;52.526;19.672;2023-03-21T07:29:06;100848.84;;;9.03;100.00
61908;BME280;47864;52.526;19.672;2023-03-21T07:31:12;100849.38;;;8.97;100.00
61908;BME280;47864;52.526;19.672;2023-03-21T07:33:14;100844.34;;;8.94;100.00
61908;BME280;47864;52.526;19.672;2023-03-21T07:35:16;100853.88;;;9.15;100.00
61908;BME280;47864;52.526;19.672;2023-03-21T07:37:18;100863.25;;;9.20;100.00
61908;BME280;47864;52.526;19.672;2023-03-21T07:39:19;100856.69;;;9.24;100.00
61908;BME280;47864;52.526;19.672;2023-03-21T07:41:22;100838.81;;;8.97;100.00
61908;BME280;47864;52.526;19.672;2023-03-21T07:43:23;100846.97;;;9.43;100.00
61908;BME280;47864;52.526;19.672;2023-03-21T07:45:25;100865.78;;;9.50;100.00
61908;BME280;47864;52.526;19.672;2023-03-21T07:47:26;100845.84;;;9.27;100.00
61908;BME280;47864;52.526;19.672;2023-03-21T07:49:28;100869.41;;;9.30;100.00
61908;BME280;47864;52.526;19.672;2023-03-21T07:51:30;100870.31;;;9.09;100.00
61908;BME280;47864;52.526;19.672;2023-03-21T07:53:31;100877.28;;;9.10;100.00
61908;BME280;47864;52.526;19.672;2023-03-21T07:55:32;100874.06;;;9.07;100.00
61908;BME280;47864;52.526;19.672;2023-03-21T07:57:34;100857.59;;;8.94;100.00
61908;BME280;47864;52.526;19.672;2023-03-21T07:59:36;100867.75;;;8.98;100.00
61908;BME280;47864;52.526;19.672;2023-03-21T08:01:37;100858.88;;;8.69;100.00
61908;BME280;47864;52.526;19.672;2023-03-21T08:03:39;100880.16;;;8.67;100.00
61908;BME280;47864;52.526;19.672;2023-03-21T08:05:41;100861.38;;;8.70;100.00
61908;BME280;47864;52.526;19.672;2023-03-21T08:07:42;100878.84;;;8.83;100.00
61908;BME280;47864;52.526;19.672;2023-03-21T08:09:44;100854.78;;;8.86;100.00
61908;BME280;47864;52.526;19.672;2023-03-21T08:11:45;100851.59;;;8.92;100.00
61908;BME280;47864;52.526;19.672;2023-03-21T08:13:47;100876.94;;;8.94;100.00
61908;BME280;47864;52.526;19.672;2023-03-21T08:15:48;100881.84;;;8.68;100.00
61908;BME280;47864;52.526;19.672;2023-03-21T08:17:50;100880.34;;;8.75;100.00
61908;BME280;47864;52.526;19.672;2023-03-21T08:19:52;100870.25;;;8.60;100.00
61908;BME280;47864;52.526;19.672;2023-03-21T08:21:53;100852.50;;;8.51;100.00
61908;BME280;47864;52.526;19.672;2023-03-21T08:23:55;100890.44;;;8.61;100.00
61908;BME280;47864;52.526;19.672;2023-03-21T08:25:56;100881.91;;;8.57;100.00
61908;BME280;47864;52.526;19.672;2023-03-21T08:27:58;100886.28;;;8.68;100.00
61908;BME280;47864;52.526;19.672;2023-03-21T08:30:00;100882.66;;;8.69;100.00
61908;BME280;47864;52.526;19.672;2023-03-21T08:32:01;100868.50;;;8.49;100.00
61908;BME280;47864;52.526;19.672;2023-03-21T08:34:03;100895.13;;;8.57;100.00
61908;BME280;47864;52.526;19.672;2023-03-21T08:36:05;100894.69;;;8.83;100.00
61908;BME280;47864;52.526;19.672;2023-03-21T08:38:07;100905.97;;;9.05;100.00
61908;BME280;47864;52.526;19.672;2023-03-21T08:40:15;100906.16;;;8.93;100.00
61908;BME280;47864;52.526;19.672;2023-03-21T08:42:17;100905.56;;;8.80;100.00
61908;BME280;47864;52.526;19.672;2023-03-21T08:44:19;100913.25;;;8.62;100.00
61908;BME280;47864;52.526;19.672;2023-03-21T08:46:21;100916.94;;;8.50;100.00
61908;BME280;47864;52.526;19.672;2023-03-21T08:48:23;100897.75;;;8.48;100.00
61908;BME280;47864;52.526;19.672;2023-03-21T08:50:25;100915.84;;;8.52;100.00
61908;BME280;47864;52.526;19.672;2023-03-21T08:52:27;100906.16;;;8.21;100.00
61908;BME280;47864;52.526;19.672;2023-03-21T08:54:28;100926.28;;;8.33;100.00
61908;BME280;47864;52.526;19.672;2023-03-21T08:56:30;100915.47;;;8.25;100.00
61908;BME280;47864;52.526;19.672;2023-03-21T08:58:32;100912.88;;;8.46;100.00
61908;BME280;47864;52.526;19.672;2023-03-21T09:00:33;100907.84;;;8.43;100.00
61908;BME280;47864;52.526;19.672;2023-03-21T09:02:35;100919.81;;;8.67;100.00
61908;BME280;47864;52.526;19.672;2023-03-21T09:04:36;100926.44;;;8.83;100.00
61908;BME280;47864;52.526;19.672;2023-03-21T09:06:39;100907.53;;;8.87;100.00
61908;BME280;47864;52.526;19.672;2023-03-21T09:08:40;100919.38;;;9.13;100.00
61908;BME280;47864;52.526;19.672;2023-03-21T09:10:42;100924.72;;;9.42;100.00
61908;BME280;47864;52.526;19.672;2023-03-21T09:12:43;100915.28;;;9.59;100.00
61908;BME280;47864;52.526;19.672;2023-03-21T09:14:45;100926.78;;;9.79;100.00
61908;BME280;47864;52.526;19.672;2023-03-21T09:16:46;100930.94;;;9.91;100.00
61908;BME280;47864;52.526;19.672;2023-03-21T09:18:48;100927.34;;;10.11;100.00
61908;BME280;47864;52.526;19.672;2023-03-21T09:20:49;100925.66;;;10.10;100.00
61908;BME280;47864;52.526;19.672;2023-03-21T09:22:52;100927.31;;;10.69;100.00
61908;BME280;47864;52.526;19.672;2023-03-21T09:24:54;100933.78;;;11.03;100.00
61908;BME280;47864;52.526;19.672;2023-03-21T09:26:55;100921.41;;;10.75;100.00
61908;BME280;47864;52.526;19.672;2023-03-21T09:28:57;100913.28;;;10.86;100.00
61908;BME280;47864;52.526;19.672;2023-03-21T09:30:58;100933.47;;;10.50;100.00
61908;BME280;47864;52.526;19.672;2023-03-21T09:33:01;100923.38;;;10.73;100.00
61908;BME280;47864;52.526;19.672;2023-03-21T09:35:03;100919.69;;;10.93;100.00
61908;BME280;47864;52.526;19.672;2023-03-21T09:37:06;100937.25;;;10.48;100.00
61908;BME280;47864;52.526;19.672;2023-03-21T09:39:08;100933.22;;;10.44;100.00
61908;BME280;47864;52.526;19.672;2023-03-21T09:45:43;100923.09;;;9.61;100.00
61908;BME280;47864;52.526;19.672;2023-03-21T09:47:47;100907.66;;;9.16;100.00
61908;BME280;47864;52.526;19.672;2023-03-21T09:49:59;100933.53;;;9.43;100.00
61908;BME280;47864;52.526;19.672;2023-03-21T09:52:24;100935.38;;;9.12;100.00
61908;BME280;47864;52.526;19.672;2023-03-21T09:54:36;100928.78;;;9.37;100.00
61908;BME280;47864;52.526;19.672;2023-03-21T09:56:40;100931.16;;;9.09;100.00
61908;BME280;47864;52.526;19.672;2023-03-21T09:58:47;100933.66;;;9.41;100.00
61908;BME280;47864;52.526;19.672;2023-03-21T10:00:51;100921.16;;;9.13;100.00
61908;BME280;47864;52.526;19.672;2023-03-21T10:03:00;100937.31;;;9.60;100.00
61908;BME280;47864;52.526;19.672;2023-03-21T10:05:12;100933.31;;;9.75;100.00
61908;BME280;47864;52.526;19.672;2023-03-21T10:07:17;100944.03;;;9.73;100.00
61908;BME280;47864;52.526;19.672;2023-03-21T10:09:20;100946.00;;;9.90;100.00
61908;BME280;47864;52.526;19.672;2023-03-21T10:11:28;100943.22;;;9.82;100.00
61908;BME280;47864;52.526;19.672;2023-03-21T10:13:34;100945.09;;;10.20;100.00
61908;BME280;47864;52.526;19.672;2023-03-21T10:15:39;100935.88;;;10.34;100.00
61908;BME280;47864;52.526;19.672;2023-03-21T10:17:42;100947.72;;;10.40;100.00
61908;BME280;47864;52.526;19.672;2023-03-21T10:19:45;100946.34;;;10.36;100.00
61908;BME280;47864;52.526;19.672;2023-03-21T10:21:48;100950.66;;;10.17;100.00
61908;BME280;47864;52.526;19.672;2023-03-21T10:24:02;100944.06;;;9.92;100.00
61908;BME280;47864;52.526;19.672;2023-03-21T10:26:05;100959.41;;;10.08;100.00
61908;BME280;47864;52.526;19.672;2023-03-21T10:28:11;100959.97;;;9.92;100.00
61908;BME280;47864;52.526;19.672;2023-03-21T10:30:47;100961.63;;;9.84;100.00
61908;BME280;47864;52.526;19.672;2023-03-21T10:32:51;100961.34;;;9.97;100.00
61908;BME280;47864;52.526;19.672;2023-03-21T10:34:55;100958.03;;;9.95;100.00
61908;BME280;47864;52.526;19.672;2023-03-21T10:37:02;100951.91;;;10.23;100.00
61908;BME280;47864;52.526;19.672;2023-03-21T10:39:19;100944.94;;;10.32;100.00
61908;BME280;47864;52.526;19.672;2023-03-21T10:41:22;100961.69;;;10.32;100.00
61908;BME280;47864;52.526;19.672;2023-03-21T10:45:27;100967.13;;;10.50;100.00
61908;BME280;47864;52.526;19.672;2023-03-21T10:47:34;100945.50;;;10.25;100.00
61908;BME280;47864;52.526;19.672;2023-03-21T10:49:37;100944.66;;;10.25;100.00
61908;BME280;47864;52.526;19.672;2023-03-21T10:52:02;100965.81;;;10.83;100.00
61908;BME280;47864;52.526;19.672;2023-03-21T10:54:13;100953.25;;;10.75;100.00
61908;BME280;47864;52.526;19.672;2023-03-21T10:56:16;100955.91;;;10.75;100.00
61908;BME280;47864;52.526;19.672;2023-03-21T10:58:21;100967.50;;;10.74;100.00
61908;BME280;47864;52.526;19.672;2023-03-21T11:00:33;100964.47;;;10.59;100.00
61908;BME280;47864;52.526;19.672;2023-03-21T11:02:36;100947.09;;;10.75;100.00
61908;BME280;47864;52.526;19.672;2023-03-21T11:04:38;100964.31;;;10.61;100.00
61908;BME280;47864;52.526;19.672;2023-03-21T11:06:42;100967.25;;;10.67;100.00
61908;BME280;47864;52.526;19.672;2023-03-21T11:08:47;100958.31;;;10.30;100.00
61908;BME280;47864;52.526;19.672;2023-03-21T11:11:05;100971.31;;;10.62;100.00